Pertusola — IBER — position and weather

sailwx.info

Track history (hours):
 
Tides and Currents Weather Stations Pressure Air Temp Water Temp Dewpoint Dewpoint Depression Visibility Wind Speed Wind Dir Waves Ship Positions

Pertusola

Last reported at 2014-Nov-22 18:31 UTC. Time now 2014-Nov-23 02:25 UTC.
Position N 59°49' E 026°40'.

Length 145 m; draft 6.4 m.

Type: Ship (hazmat cat A). MMSI: 247399000.

Date/timePositionNaut miles runAvg speedWind from/ knotsBaromVisibWave heightAir tempDewpointWater temp
2014-Nov-22 18:31N 59°49' E 026°40'1914.7
2014-Nov-22 17:14N 59°54' E 026°04'1615.8
2014-Nov-22 16:16N 59°51' E 025°34'1615.9
2014-Nov-22 15:16N 59°47' E 025°03'1215.9
2014-Nov-22 14:31N 59°45' E 024°40'1515.7
2014-Nov-22 13:33N 59°41' E 024°11'1615.7
2014-Nov-22 12:33N 59°36' E 023°41'1715.8
2014-Nov-22 11:28N 59°30' E 023°09'  
2014-Nov-19 06:16N 56°52' E 018°35'14013.0
2014-Nov-18 19:32N 55°33' E 015°07'1313.1
2014-Nov-18 18:33N 55°27' E 014°48'1312.7
2014-Nov-18 17:33N 55°18' E 014°31'1313.1
2014-Nov-18 16:34N 55°08' E 014°17'5313.0
2014-Nov-18 12:30N 54°47' E 012°53'2412.6
2014-Nov-18 10:33N 54°33' E 012°17'1211.5
2014-Nov-18 09:33N 54°25' E 012°04'159 9.9
2014-Nov-17 17:30N 57°03' E 011°39'1313.5
2014-Nov-17 16:33N 57°15' E 011°31'1313.5
2014-Nov-17 15:33N 57°28' E 011°24'1212.1
2014-Nov-17 14:32N 57°36' E 011°41'0 0.1
2014-Nov-17 13:32N 57°36' E 011°41'0 0.0
2014-Nov-17 12:32N 57°36' E 011°41'0 0.0
2014-Nov-17 11:33N 57°36' E 011°41'0 0.0
2014-Nov-17 10:33N 57°36' E 011°41'0 0.1
2014-Nov-17 09:33N 57°36' E 011°41'1010.0
2014-Nov-17 08:33N 57°32' E 011°24'1211.7
2014-Nov-17 07:33N 57°37' E 011°04'1312.6
2014-Nov-17 06:33N 57°46' E 010°47'40110.8
2014-Nov-15 17:33N 54°54' W 000°07'1414.0
2014-Nov-15 16:32N 54°50' W 000°30'1414.1
2014-Nov-15 15:34N 54°45' W 000°53'1211.5
2014-Nov-15 14:33N 54°38' W 001°09'3 2.0
2014-Nov-15 13:14N 54°36' W 001°11'0 0.0
2014-Nov-15 12:29N 54°36' W 001°11'0 0.0
2014-Nov-15 11:32N 54°36' W 001°11'0 0.0
2014-Nov-15 10:29N 54°36' W 001°11'0 0.0
2014-Nov-15 09:14N 54°36' W 001°11'0 0.0
2014-Nov-15 08:32N 54°36' W 001°11'0 0.0
2014-Nov-13 09:34N 54°36' W 001°10'6 6.5
2014-Nov-13 08:34N 54°42' W 001°04'3 2.6
2014-Nov-13 07:24N 54°41' W 000°59'0 0.1
2014-Nov-13 05:29N 54°41' W 000°59'0 0.1
2014-Nov-13 04:32N 54°41' W 000°59'0 0.0
2014-Nov-13 02:26N 54°41' W 000°59'0 0.0
2014-Nov-13 01:32N 54°41' W 000°59'0 0.0
2014-Nov-13 00:20N 54°41' W 000°59'0 0.0
2014-Nov-12 23:23N 54°41' W 000°59'0 0.0
2014-Nov-12 22:26N 54°41' W 000°59'0 0.0
2014-Nov-12 21:26N 54°41' W 000°59'0 0.0
2014-Nov-12 20:29N 54°41' W 000°59'  
Track history (hours):
 
Tides and Currents Weather Stations Pressure Air Temp Water Temp Dewpoint Dewpoint Depression Visibility Wind Speed Wind Dir Waves Ship Positions

Pertusola

Last reported at 2014-Nov-22 18:31 UTC. Time now 2014-Nov-23 02:25 UTC.
Position N 59°49' E 026°40'.

Length 145 m; draft 6.4 m.

Type: Ship (hazmat cat A). MMSI: 247399000.

Date/timePositionNaut miles runAvg speedWind from/ knotsBaromVisibWave heightAir tempDewpointWater temp
2014-Nov-22 18:31N 59°49' E 026°40'1914.7
2014-Nov-22 17:14N 59°54' E 026°04'1615.8
2014-Nov-22 16:16N 59°51' E 025°34'1615.9
2014-Nov-22 15:16N 59°47' E 025°03'1215.9
2014-Nov-22 14:31N 59°45' E 024°40'1515.7
2014-Nov-22 13:33N 59°41' E 024°11'1615.7
2014-Nov-22 12:33N 59°36' E 023°41'1715.8
2014-Nov-22 11:28N 59°30' E 023°09'  
2014-Nov-19 06:16N 56°52' E 018°35'14013.0
2014-Nov-18 19:32N 55°33' E 015°07'1313.1
2014-Nov-18 18:33N 55°27' E 014°48'1312.7
2014-Nov-18 17:33N 55°18' E 014°31'1313.1
2014-Nov-18 16:34N 55°08' E 014°17'5313.0
2014-Nov-18 12:30N 54°47' E 012°53'2412.6
2014-Nov-18 10:33N 54°33' E 012°17'1211.5
2014-Nov-18 09:33N 54°25' E 012°04'159 9.9
2014-Nov-17 17:30N 57°03' E 011°39'1313.5
2014-Nov-17 16:33N 57°15' E 011°31'1313.5
2014-Nov-17 15:33N 57°28' E 011°24'1212.1
2014-Nov-17 14:32N 57°36' E 011°41'0 0.1
2014-Nov-17 13:32N 57°36' E 011°41'0 0.0
2014-Nov-17 12:32N 57°36' E 011°41'0 0.0
2014-Nov-17 11:33N 57°36' E 011°41'0 0.0
2014-Nov-17 10:33N 57°36' E 011°41'0 0.1
2014-Nov-17 09:33N 57°36' E 011°41'1010.0
2014-Nov-17 08:33N 57°32' E 011°24'1211.7
2014-Nov-17 07:33N 57°37' E 011°04'1312.6
2014-Nov-17 06:33N 57°46' E 010°47'40110.8
2014-Nov-15 17:33N 54°54' W 000°07'1414.0
2014-Nov-15 16:32N 54°50' W 000°30'1414.1
2014-Nov-15 15:34N 54°45' W 000°53'1211.5
2014-Nov-15 14:33N 54°38' W 001°09'3 2.0
2014-Nov-15 13:14N 54°36' W 001°11'0 0.0
2014-Nov-15 12:29N 54°36' W 001°11'0 0.0
2014-Nov-15 11:32N 54°36' W 001°11'0 0.0
2014-Nov-15 10:29N 54°36' W 001°11'0 0.0
2014-Nov-15 09:14N 54°36' W 001°11'0 0.0
2014-Nov-15 08:32N 54°36' W 001°11'0 0.0
2014-Nov-13 09:34N 54°36' W 001°10'6 6.5
2014-Nov-13 08:34N 54°42' W 001°04'3 2.6
2014-Nov-13 07:24N 54°41' W 000°59'0 0.1
2014-Nov-13 05:29N 54°41' W 000°59'0 0.1
2014-Nov-13 04:32N 54°41' W 000°59'0 0.0
2014-Nov-13 02:26N 54°41' W 000°59'0 0.0
2014-Nov-13 01:32N 54°41' W 000°59'0 0.0
2014-Nov-13 00:20N 54°41' W 000°59'0 0.0
2014-Nov-12 23:23N 54°41' W 000°59'0 0.0
2014-Nov-12 22:26N 54°41' W 000°59'0 0.0
2014-Nov-12 21:26N 54°41' W 000°59'0 0.0
2014-Nov-12 20:29N 54°41' W 000°59'  

Dump ship's entire track history